createdAt,value
2022-12-22T00:00:21.909Z,5.50
2022-12-22T00:03:09.119Z,5.40
2022-12-22T00:05:56.643Z,5.30
2022-12-22T00:08:43.640Z,5.40
2022-12-22T00:11:31.671Z,5.30
2022-12-22T00:14:18.554Z,5.30
2022-12-22T00:17:06.482Z,5.30
2022-12-22T00:19:53.988Z,5.30
2022-12-22T00:22:45.033Z,5.30
2022-12-22T00:25:34.596Z,5.30
2022-12-22T00:28:30.606Z,5.20
2022-12-22T00:31:17.324Z,5.20
2022-12-22T00:34:04.372Z,5.10
2022-12-22T00:36:50.807Z,5.00
2022-12-22T00:39:37.748Z,4.90
2022-12-22T00:42:24.265Z,4.90
2022-12-22T00:45:11.035Z,4.80
2022-12-22T00:47:58.581Z,4.80
2022-12-22T00:50:53.803Z,4.80
2022-12-22T00:53:41.213Z,4.70
2022-12-22T00:56:29.088Z,4.70
2022-12-22T00:59:17.868Z,4.80
2022-12-22T01:02:05.238Z,4.80
2022-12-22T01:04:51.974Z,4.70
2022-12-22T01:07:41.859Z,4.70
2022-12-22T01:10:33.106Z,4.80
2022-12-22T01:13:20.580Z,4.70
2022-12-22T01:16:07.418Z,4.70
2022-12-22T01:18:53.779Z,4.60
2022-12-22T01:21:40.712Z,4.60
2022-12-22T01:24:31.926Z,4.50
2022-12-22T01:27:18.979Z,4.50
2022-12-22T01:30:05.441Z,4.50
2022-12-22T01:32:51.961Z,4.60
2022-12-22T01:35:45.581Z,4.70
2022-12-22T01:38:32.223Z,4.90
2022-12-22T01:41:20.401Z,4.80
2022-12-22T01:44:09.217Z,4.70
2022-12-22T01:47:03.635Z,4.50
2022-12-22T01:50:02.629Z,4.30
2022-12-22T01:52:54.139Z,4.40
2022-12-22T01:55:43.873Z,4.40
2022-12-22T01:58:45.500Z,4.30
2022-12-22T02:01:32.562Z,4.30
2022-12-22T02:04:20.542Z,4.30
2022-12-22T02:07:10.431Z,4.40
2022-12-22T02:10:16.910Z,4.40
2022-12-22T02:13:28.576Z,4.40
2022-12-22T02:16:57.856Z,4.40
2022-12-22T02:20:26.521Z,4.30
2022-12-22T02:23:40.584Z,4.40
2022-12-22T02:26:43.226Z,4.60
2022-12-22T02:29:32.375Z,4.70
2022-12-22T02:32:19.318Z,4.70
2022-12-22T02:35:06.148Z,4.60
2022-12-22T02:38:14.938Z,4.60
2022-12-22T02:41:06.649Z,4.60
2022-12-22T02:44:05.169Z,4.60
2022-12-22T02:47:11.326Z,4.70
2022-12-22T02:50:04.968Z,4.90
2022-12-22T02:52:56.396Z,4.70
2022-12-22T02:55:44.216Z,4.50
2022-12-22T02:58:32.183Z,4.50
2022-12-22T03:01:20.900Z,4.60
2022-12-22T03:04:08.017Z,4.60
2022-12-22T03:06:54.320Z,4.50
2022-12-22T03:09:40.949Z,4.30
2022-12-22T03:12:27.701Z,4.20
2022-12-22T03:15:14.792Z,4.10
2022-12-22T03:18:01.290Z,4.20
2022-12-22T03:20:47.953Z,4.20
2022-12-22T03:23:34.732Z,4.30
2022-12-22T03:26:02.938Z,4.40
2022-12-22T03:28:31.583Z,4.40
2022-12-22T03:31:05.998Z,4.40
2022-12-22T03:33:34.780Z,4.40
2022-12-22T03:36:03.195Z,4.40
2022-12-22T03:38:31.886Z,4.40
2022-12-22T03:40:59.822Z,4.40
2022-12-22T03:43:47.233Z,4.40
2022-12-22T03:46:17.372Z,4.30
2022-12-22T03:49:06.875Z,4.30
2022-12-22T03:51:35.507Z,4.40
2022-12-22T03:54:04.737Z,4.50
2022-12-22T03:56:33.893Z,4.50
2022-12-22T03:59:02.068Z,4.50
2022-12-22T04:01:30.563Z,4.40
2022-12-22T04:03:59.267Z,4.50
2022-12-22T04:06:27.582Z,4.40
2022-12-22T04:08:55.513Z,4.50
2022-12-22T04:11:41.769Z,4.50
2022-12-22T04:14:10.920Z,4.50
2022-12-22T04:16:39.145Z,4.50
2022-12-22T04:19:08.716Z,4.50
2022-12-22T04:21:37.470Z,4.50
2022-12-22T04:24:06.265Z,4.50
2022-12-22T04:26:35.669Z,4.50
2022-12-22T04:29:03.860Z,4.50
2022-12-22T04:31:32.107Z,4.50
2022-12-22T04:34:00.186Z,4.60
2022-12-22T04:36:29.058Z,4.60
2022-12-22T04:38:57.018Z,4.60
2022-12-22T04:41:25.028Z,4.70
2022-12-22T04:43:53.446Z,4.70
2022-12-22T04:46:21.425Z,4.70
2022-12-22T04:48:53.136Z,4.60
2022-12-22T04:51:25.045Z,4.60
2022-12-22T04:53:53.888Z,4.70
2022-12-22T04:56:21.847Z,4.80
2022-12-22T04:58:50.272Z,4.80
2022-12-22T05:01:19.166Z,4.80
2022-12-22T05:03:48.428Z,4.80
2022-12-22T05:06:17.014Z,4.80
2022-12-22T05:08:45.414Z,4.80
2022-12-22T05:11:13.372Z,4.70
2022-12-22T05:13:41.396Z,4.70
2022-12-22T05:16:15.193Z,4.70
2022-12-22T05:18:46.461Z,4.70
2022-12-22T05:21:21.168Z,4.80
2022-12-22T05:23:50.568Z,4.80
2022-12-22T05:26:19.903Z,4.80
2022-12-22T05:28:48.653Z,4.80
2022-12-22T05:31:21.189Z,4.80
2022-12-22T05:33:49.881Z,4.70
2022-12-22T05:36:18.242Z,4.70
2022-12-22T05:38:46.676Z,4.70
2022-12-22T05:41:14.891Z,4.60
2022-12-22T05:43:43.366Z,4.60
2022-12-22T05:46:12.411Z,4.70
2022-12-22T05:48:41.054Z,4.70
2022-12-22T05:51:10.948Z,4.70
2022-12-22T05:53:40.060Z,4.70
2022-12-22T05:56:08.611Z,4.70
2022-12-22T05:58:39.280Z,4.70
2022-12-22T06:01:07.822Z,4.70
2022-12-22T06:03:36.003Z,4.80
2022-12-22T06:06:05.390Z,4.90
2022-12-22T06:08:33.777Z,4.80
2022-12-22T06:11:01.786Z,4.90
2022-12-22T06:13:29.710Z,4.90
2022-12-22T06:15:57.688Z,5.10
2022-12-22T06:18:26.988Z,5.20
2022-12-22T06:20:54.968Z,5.30
2022-12-22T06:23:23.784Z,5.20
2022-12-22T06:26:01.936Z,5.10
2022-12-22T06:28:31.308Z,5.20
2022-12-22T06:30:59.888Z,5.10
2022-12-22T06:33:27.937Z,5.10
2022-12-22T06:35:58.834Z,5.00
2022-12-22T06:38:28.745Z,5.00
2022-12-22T06:40:57.139Z,4.90
2022-12-22T06:43:26.066Z,4.90
2022-12-22T06:45:54.568Z,4.90
2022-12-22T06:48:22.899Z,5.00
2022-12-22T06:50:50.929Z,5.00
2022-12-22T06:53:19.414Z,5.00
2022-12-22T06:55:47.944Z,5.20
2022-12-22T06:58:15.902Z,5.20
2022-12-22T07:00:48.620Z,5.30
2022-12-22T07:03:17.397Z,5.60
2022-12-22T07:05:45.786Z,5.70
2022-12-22T07:08:14.256Z,5.60
2022-12-22T07:10:58.060Z,5.60
2022-12-22T07:13:29.927Z,5.70
2022-12-22T07:16:01.121Z,5.60
2022-12-22T07:18:35.402Z,5.60
2022-12-22T07:21:07.177Z,5.70
2022-12-22T07:23:35.676Z,5.80
2022-12-22T07:26:04.861Z,5.90
2022-12-22T07:28:37.353Z,6.10
2022-12-22T07:31:07.128Z,6.80
2022-12-22T07:33:36.218Z,7.50
2022-12-22T07:36:22.539Z,7.60
2022-12-22T07:39:09.001Z,7.30
2022-12-22T07:41:57.338Z,6.90
2022-12-22T07:44:25.899Z,6.70
2022-12-22T07:46:54.027Z,6.70
2022-12-22T07:49:41.261Z,6.70
2022-12-22T07:52:09.942Z,6.80
2022-12-22T07:54:41.734Z,7.50
2022-12-22T07:57:11.013Z,7.90
2022-12-22T07:59:39.092Z,8.20
2022-12-22T08:02:11.840Z,8.40
2022-12-22T08:04:41.021Z,9.00
2022-12-22T08:07:09.141Z,9.90
2022-12-22T08:12:06.485Z,9.80
2022-12-22T08:14:34.975Z,9.00
2022-12-22T08:17:04.219Z,8.70
2022-12-22T08:19:51.459Z,8.50
2022-12-22T08:22:19.708Z,8.50
2022-12-22T08:25:06.543Z,8.90
2022-12-22T08:27:40.715Z,9.50
2022-12-22T08:30:10.129Z,9.90
2022-12-22T08:32:41.023Z,10.30
2022-12-22T08:35:28.979Z,10.50
2022-12-22T08:37:57.077Z,10.10
2022-12-22T08:40:45.774Z,10.40
2022-12-22T08:43:15.083Z,10.60
2022-12-22T08:45:43.495Z,10.60
2022-12-22T08:48:11.582Z,10.40
2022-12-22T08:50:40.219Z,9.70
2022-12-22T08:53:29.632Z,9.30
2022-12-22T08:55:58.051Z,9.20
2022-12-22T08:58:26.334Z,9.00
2022-12-22T09:00:54.573Z,8.90
2022-12-22T09:03:23.090Z,8.80
2022-12-22T09:05:51.217Z,8.80
2022-12-22T09:08:19.596Z,9.10
2022-12-22T09:10:47.787Z,9.10
2022-12-22T09:13:16.255Z,9.20
2022-12-22T09:15:44.313Z,9.90
2022-12-22T09:18:12.904Z,10.40
2022-12-22T09:20:41.287Z,11.20
2022-12-22T09:23:10.355Z,10.70
2022-12-22T09:25:38.938Z,10.60
2022-12-22T09:28:08.519Z,10.50
2022-12-22T09:30:36.440Z,10.70
2022-12-22T09:33:04.964Z,11.30
2022-12-22T09:35:33.655Z,11.60
2022-12-22T09:38:02.316Z,12.10
2022-12-22T09:40:32.749Z,13.20
2022-12-22T09:43:01.278Z,13.40
2022-12-22T09:45:29.470Z,13.20
2022-12-22T09:47:58.389Z,13.20
2022-12-22T09:50:28.061Z,12.80
2022-12-22T09:53:03.519Z,12.50
2022-12-22T09:55:44.196Z,12.40
2022-12-22T09:58:26.640Z,12.00
2022-12-22T10:01:18.523Z,11.80
2022-12-22T10:03:58.260Z,11.70
2022-12-22T10:06:36.806Z,11.30
2022-12-22T10:09:48.107Z,10.90
2022-12-22T10:12:16.072Z,10.80
2022-12-22T10:14:48.212Z,10.70
2022-12-22T10:17:23.220Z,11.00
2022-12-22T10:19:54.003Z,11.80
2022-12-22T10:22:32.267Z,11.80
2022-12-22T10:25:03.806Z,11.70
2022-12-22T10:27:42.958Z,11.50
2022-12-22T10:30:24.988Z,11.70
2022-12-22T10:33:03.757Z,11.80
2022-12-22T10:35:49.487Z,11.80
2022-12-22T10:38:31.147Z,11.80
2022-12-22T10:41:20.452Z,11.90
2022-12-22T10:44:16.231Z,11.90
2022-12-22T10:46:49.321Z,12.10
2022-12-22T10:49:30.483Z,12.40
2022-12-22T10:52:29.614Z,12.60
2022-12-22T10:55:21.886Z,12.60
2022-12-22T10:57:50.699Z,12.80
2022-12-22T11:00:29.192Z,12.90
2022-12-22T11:03:00.461Z,12.90
2022-12-22T11:05:30.218Z,12.90
2022-12-22T11:08:07.442Z,12.90
2022-12-22T11:10:46.371Z,12.90
2022-12-22T11:13:53.548Z,13.00
2022-12-22T11:16:41.663Z,13.20
2022-12-22T11:19:27.826Z,13.30
2022-12-22T11:22:26.830Z,13.30
2022-12-22T11:25:05.951Z,13.50
2022-12-22T11:27:46.935Z,13.50
2022-12-22T11:30:19.372Z,13.60
2022-12-22T11:32:59.639Z,13.70
2022-12-22T11:36:01.333Z,13.60
2022-12-22T11:38:37.876Z,13.70
2022-12-22T11:41:37.252Z,13.70
2022-12-22T11:44:08.436Z,13.70
2022-12-22T11:46:46.601Z,13.70
2022-12-22T11:49:43.621Z,13.70
2022-12-22T11:52:17.592Z,13.70
2022-12-22T11:55:22.528Z,13.70
2022-12-22T11:58:16.279Z,13.70
2022-12-22T12:03:51.358Z,13.70
2022-12-22T12:06:35.027Z,13.70
2022-12-22T12:09:29.061Z,13.60
2022-12-22T12:12:05.332Z,13.60
2022-12-22T12:14:48.376Z,13.60
2022-12-22T12:17:17.171Z,13.50
2022-12-22T12:20:36.731Z,13.50
2022-12-22T12:23:28.873Z,13.50
2022-12-22T12:26:31.379Z,13.50
2022-12-22T12:29:37.642Z,13.50
2022-12-22T12:32:17.117Z,13.50
2022-12-22T12:34:50.266Z,13.50
2022-12-22T12:37:24.334Z,13.60
2022-12-22T12:40:30.308Z,13.60
2022-12-22T12:43:00.130Z,13.70
2022-12-22T12:45:43.930Z,13.80
2022-12-22T12:48:39.354Z,13.90
2022-12-22T12:51:49.712Z,13.90
2022-12-22T12:54:33.066Z,14.00
2022-12-22T12:57:03.715Z,14.00
2022-12-22T12:59:41.729Z,13.90
2022-12-22T13:02:28.489Z,13.80
2022-12-22T13:05:14.767Z,13.80
2022-12-22T13:08:18.494Z,13.80
2022-12-22T13:10:56.059Z,13.70
2022-12-22T13:13:25.162Z,13.70
2022-12-22T13:16:02.448Z,13.70
2022-12-22T13:18:49.879Z,13.80
2022-12-22T13:27:14.259Z,13.60
2022-12-22T13:29:45.836Z,13.50
2022-12-22T13:30:51.032Z,13.60
2022-12-22T13:32:26.127Z,13.50
2022-12-22T13:35:31.408Z,13.50
2022-12-22T13:38:01.217Z,13.50
2022-12-22T13:40:49.490Z,13.50
2022-12-22T13:43:20.388Z,13.50
2022-12-22T13:45:55.566Z,13.50
2022-12-22T13:48:44.765Z,13.40
2022-12-22T13:51:29.625Z,13.40
2022-12-22T13:54:10.852Z,13.30
2022-12-22T13:56:46.264Z,13.30
2022-12-22T13:59:35.708Z,13.30
2022-12-22T14:02:10.215Z,13.30
2022-12-22T14:04:41.716Z,13.30
2022-12-22T14:07:20.599Z,13.30
2022-12-22T14:09:50.304Z,13.20
2022-12-22T14:12:23.553Z,13.20
2022-12-22T14:14:52.579Z,13.20
2022-12-22T14:17:35.066Z,13.20
2022-12-22T14:20:36.001Z,13.10
2022-12-22T14:23:07.530Z,13.10
2022-12-22T14:25:42.207Z,13.10
2022-12-22T14:28:43.323Z,13.00
2022-12-22T14:31:13.277Z,13.00
2022-12-22T14:33:52.275Z,13.00
2022-12-22T14:36:25.731Z,13.00
2022-12-22T14:38:57.389Z,12.90
2022-12-22T14:42:01.841Z,12.80
2022-12-22T14:44:37.963Z,12.80
2022-12-22T14:47:18.501Z,12.70
2022-12-22T14:49:46.980Z,12.60
2022-12-22T14:52:21.173Z,12.60
2022-12-22T14:54:52.209Z,12.50
2022-12-22T14:57:46.226Z,12.50
2022-12-22T15:00:39.550Z,12.50
2022-12-22T15:03:33.280Z,12.40
2022-12-22T15:06:30.267Z,12.30
2022-12-22T15:09:13.492Z,12.30
2022-12-22T15:12:02.052Z,12.20
2022-12-22T15:14:38.424Z,12.10
2022-12-22T15:17:16.892Z,12.10
2022-12-22T15:19:44.987Z,12.00
2022-12-22T15:22:13.630Z,12.00
2022-12-22T15:24:41.649Z,11.90
2022-12-22T15:27:10.056Z,11.80
2022-12-22T15:29:39.253Z,11.70
2022-12-22T15:32:12.953Z,11.70
2022-12-22T15:34:42.564Z,11.70
2022-12-22T15:37:13.242Z,11.60
2022-12-22T15:39:41.840Z,11.50
2022-12-22T15:42:09.758Z,11.40
2022-12-22T15:44:39.212Z,11.30
2022-12-22T15:47:11.209Z,11.20
2022-12-22T15:49:39.711Z,11.10
2022-12-22T15:52:11.169Z,11.10
2022-12-22T15:54:40.066Z,11.00
2022-12-22T15:57:13.300Z,10.90
2022-12-22T15:59:42.202Z,10.70
2022-12-22T16:02:15.807Z,10.50
2022-12-22T16:04:44.447Z,10.50
2022-12-22T16:07:13.282Z,10.50
2022-12-22T16:09:44.544Z,10.50
2022-12-22T16:12:21.404Z,10.40
2022-12-22T16:14:55.609Z,10.20
2022-12-22T16:17:28.082Z,10.20
2022-12-22T16:19:56.139Z,10.10
2022-12-22T16:22:33.737Z,10.10
2022-12-22T16:25:04.132Z,10.10
2022-12-22T16:27:33.375Z,9.90
2022-12-22T16:30:01.741Z,9.80
2022-12-22T16:32:32.522Z,9.60
2022-12-22T16:35:10.867Z,9.60
2022-12-22T16:37:39.663Z,9.50
2022-12-22T16:40:08.415Z,9.50
2022-12-22T16:45:28.887Z,9.50
2022-12-22T16:48:05.844Z,9.50
2022-12-22T16:50:34.206Z,9.40
2022-12-22T16:53:05.390Z,9.30
2022-12-22T16:55:37.682Z,9.20
2022-12-22T16:58:13.536Z,9.10
2022-12-22T17:00:45.914Z,9.20
2022-12-22T17:03:17.343Z,9.20
2022-12-22T17:05:56.451Z,9.40
2022-12-22T17:08:32.248Z,9.40
2022-12-22T17:11:10.061Z,9.40
2022-12-22T17:13:39.984Z,9.30
2022-12-22T17:16:23.572Z,9.30
2022-12-22T17:18:51.486Z,9.10
2022-12-22T17:21:20.785Z,8.90
2022-12-22T17:23:52.496Z,8.80
2022-12-22T17:26:24.936Z,8.60
2022-12-22T17:28:53.986Z,8.50
2022-12-22T17:31:23.358Z,8.50
2022-12-22T17:33:51.945Z,8.50
2022-12-22T17:36:40.332Z,8.60
2022-12-22T17:39:17.186Z,8.60
2022-12-22T17:41:49.037Z,8.40
2022-12-22T17:47:42.693Z,8.20
2022-12-22T17:50:14.330Z,8.30
2022-12-22T17:52:44.695Z,8.30
2022-12-22T17:56:05.386Z,8.20
2022-12-22T17:58:15.990Z,8.30
2022-12-22T18:01:25.921Z,8.30
2022-12-22T18:03:55.446Z,8.20
2022-12-22T18:06:27.881Z,8.10
2022-12-22T18:08:57.194Z,8.10
2022-12-22T18:11:25.748Z,8.10
2022-12-22T18:13:57.443Z,8.20
2022-12-22T18:16:25.725Z,8.20
2022-12-22T18:18:54.070Z,8.30
2022-12-22T18:21:25.029Z,8.30
2022-12-22T18:23:53.363Z,8.30
2022-12-22T18:26:27.712Z,8.20
2022-12-22T18:28:57.237Z,8.20
2022-12-22T18:31:26.292Z,8.20
2022-12-22T18:33:55.196Z,8.20
2022-12-22T18:36:29.867Z,8.10
2022-12-22T18:39:00.721Z,7.90
2022-12-22T18:41:34.824Z,7.80
2022-12-22T18:44:03.346Z,7.70
2022-12-22T18:46:31.992Z,7.50
2022-12-22T18:49:05.339Z,7.50
2022-12-22T18:51:34.820Z,7.60
2022-12-22T18:54:03.683Z,7.60
2022-12-22T18:56:32.079Z,7.40
2022-12-22T18:59:00.222Z,7.30
2022-12-22T19:01:29.267Z,7.20
2022-12-22T19:03:58.951Z,7.40
2022-12-22T19:06:27.604Z,7.30
2022-12-22T19:08:56.406Z,7.30
2022-12-22T19:11:28.075Z,7.40
2022-12-22T19:13:56.475Z,7.40
2022-12-22T19:16:27.830Z,7.30
2022-12-22T19:18:58.026Z,7.30
2022-12-22T19:21:26.502Z,7.50
2022-12-22T19:23:54.601Z,7.70
2022-12-22T19:26:28.244Z,7.70
2022-12-22T19:29:00.753Z,7.70
2022-12-22T19:31:34.576Z,7.60
2022-12-22T19:34:12.797Z,7.50
2022-12-22T19:36:40.985Z,7.60
2022-12-22T19:39:08.946Z,7.60
2022-12-22T19:41:53.672Z,7.60
2022-12-22T19:44:31.220Z,7.60
2022-12-22T19:47:02.085Z,7.20
2022-12-22T19:49:30.327Z,7.20
2022-12-22T19:51:59.231Z,7.10
2022-12-22T19:54:28.477Z,7.20
2022-12-22T19:56:57.127Z,7.30
2022-12-22T19:59:40.244Z,7.30
2022-12-22T20:02:26.635Z,7.30
2022-12-22T20:04:55.617Z,7.30
2022-12-22T20:07:26.801Z,7.20
2022-12-22T20:09:55.241Z,7.20
2022-12-22T20:12:33.314Z,7.20
2022-12-22T20:15:05.578Z,7.10
2022-12-22T20:17:34.287Z,7.10
2022-12-22T20:20:02.290Z,7.10
2022-12-22T20:22:56.875Z,7.10
2022-12-22T20:25:28.620Z,7.10
2022-12-22T20:27:57.483Z,7.20
2022-12-22T20:30:49.421Z,7.20
2022-12-22T20:33:23.035Z,7.20
2022-12-22T20:35:53.306Z,7.20
2022-12-22T20:38:42.068Z,7.20
2022-12-22T20:41:10.876Z,7.20
2022-12-22T20:43:39.342Z,7.20
2022-12-22T20:46:26.081Z,7.20
2022-12-22T20:48:57.166Z,7.30
2022-12-22T20:51:29.075Z,7.30
2022-12-22T20:53:58.291Z,7.30
2022-12-22T20:56:36.102Z,7.30
2022-12-22T20:59:24.407Z,7.40
2022-12-22T21:01:53.404Z,7.50
2022-12-22T21:04:22.428Z,7.50
2022-12-22T21:06:53.345Z,7.50
2022-12-22T21:09:23.292Z,7.50
2022-12-22T21:11:51.333Z,7.50
2022-12-22T21:14:19.276Z,7.50
2022-12-22T21:16:48.956Z,7.50
2022-12-22T21:19:18.505Z,7.60
2022-12-22T21:21:47.286Z,7.60
2022-12-22T21:24:15.850Z,7.70
2022-12-22T21:26:55.465Z,7.60
2022-12-22T21:29:25.447Z,7.60
2022-12-22T21:31:53.591Z,7.60
2022-12-22T21:34:22.740Z,7.50
2022-12-22T21:36:59.349Z,7.50
2022-12-22T21:39:27.232Z,7.50
2022-12-22T21:42:02.013Z,7.40
2022-12-22T21:44:31.699Z,7.30
2022-12-22T21:47:00.851Z,7.10
2022-12-22T21:49:31.594Z,7.00
2022-12-22T21:52:00.271Z,7.00
2022-12-22T21:54:28.750Z,7.00
2022-12-22T21:56:57.221Z,7.10
2022-12-22T21:59:25.969Z,7.10
2022-12-22T22:01:56.560Z,7.10
2022-12-22T22:04:25.314Z,7.10
2022-12-22T22:06:53.845Z,7.00
2022-12-22T22:09:21.853Z,7.10
2022-12-22T22:12:09.223Z,7.00
2022-12-22T22:14:37.691Z,7.10
2022-12-22T22:17:06.588Z,7.10
2022-12-22T22:19:34.632Z,7.10
2022-12-22T22:22:03.708Z,7.10
2022-12-22T22:24:31.823Z,7.10
2022-12-22T22:26:59.953Z,7.10
2022-12-22T22:29:28.154Z,7.00
2022-12-22T22:31:56.616Z,7.00
2022-12-22T22:34:24.815Z,7.00
2022-12-22T22:36:52.972Z,7.10
2022-12-22T22:39:23.488Z,7.10
2022-12-22T22:41:51.883Z,7.10
2022-12-22T22:44:20.229Z,7.10
2022-12-22T22:46:48.218Z,7.10
2022-12-22T22:49:16.279Z,7.10
2022-12-22T22:51:44.722Z,7.00
2022-12-22T22:54:13.323Z,6.90
2022-12-22T22:56:42.274Z,6.90
2022-12-22T22:59:36.312Z,6.90
2022-12-22T23:02:05.356Z,6.90
2022-12-22T23:04:34.222Z,6.90
2022-12-22T23:07:02.613Z,6.90
2022-12-22T23:09:31.163Z,7.00
2022-12-22T23:11:59.225Z,7.10
2022-12-22T23:14:27.233Z,7.20
2022-12-22T23:16:55.963Z,7.30
2022-12-22T23:19:24.961Z,7.30
2022-12-22T23:21:52.989Z,7.30
2022-12-22T23:24:21.610Z,7.30
2022-12-22T23:26:49.653Z,7.20
2022-12-22T23:29:17.654Z,7.20
2022-12-22T23:31:46.948Z,7.10
2022-12-22T23:34:15.206Z,7.00
2022-12-22T23:36:43.665Z,7.20
2022-12-22T23:39:11.628Z,7.20
2022-12-22T23:41:39.889Z,7.20
2022-12-22T23:44:08.187Z,7.20
2022-12-22T23:46:37.817Z,7.20
2022-12-22T23:49:06.508Z,7.20
2022-12-22T23:51:34.490Z,7.10
2022-12-22T23:54:02.893Z,7.00
2022-12-22T23:56:31.293Z,7.00
2022-12-22T23:58:59.899Z,7.00
